createdAt,value
2023-05-02T00:02:15.396Z,65.20
2023-05-02T00:04:44.669Z,64.84
2023-05-02T00:07:12.532Z,64.20
2023-05-02T00:09:40.299Z,63.82
2023-05-02T00:12:07.932Z,63.11
2023-05-02T00:14:35.593Z,62.91
2023-05-02T00:17:03.438Z,62.68
2023-05-02T00:19:31.145Z,62.43
2023-05-02T00:22:00.156Z,62.00
2023-05-02T00:24:27.918Z,61.64
2023-05-02T00:26:55.759Z,61.88
2023-05-02T00:29:23.490Z,61.55
2023-05-02T00:31:51.215Z,61.18
2023-05-02T00:34:18.944Z,60.99
2023-05-02T00:36:47.045Z,60.88
2023-05-02T00:39:16.535Z,60.73
2023-05-02T00:41:44.331Z,60.61
2023-05-02T00:44:12.050Z,60.66
2023-05-02T00:46:39.880Z,60.67
2023-05-02T00:49:07.607Z,60.28
2023-05-02T00:51:35.353Z,59.91
2023-05-02T00:54:03.256Z,59.95
2023-05-02T00:56:32.329Z,59.88
2023-05-02T00:59:01.456Z,59.65
2023-05-02T01:01:48.594Z,59.61
2023-05-02T01:04:31.303Z,59.42
2023-05-02T01:07:11.660Z,59.62
2023-05-02T01:09:53.505Z,59.50
2023-05-02T01:12:29.837Z,59.67
2023-05-02T01:14:59.599Z,60.16
2023-05-02T01:17:29.977Z,60.06
2023-05-02T01:20:00.801Z,60.90
2023-05-02T01:22:30.731Z,60.56
2023-05-02T01:25:05.505Z,60.68
2023-05-02T01:27:44.410Z,60.65
2023-05-02T01:30:16.119Z,61.11
2023-05-02T01:32:47.226Z,61.56
2023-05-02T01:35:17.363Z,61.29
2023-05-02T01:37:46.970Z,62.06
2023-05-02T01:40:19.491Z,62.51
2023-05-02T01:42:49.052Z,62.53
2023-05-02T01:45:20.049Z,62.32
2023-05-02T01:47:48.711Z,61.94
2023-05-02T01:50:23.000Z,61.99
2023-05-02T01:52:52.506Z,61.86
2023-05-02T01:55:21.103Z,60.61
2023-05-02T01:57:51.697Z,60.59
2023-05-02T02:00:23.169Z,60.65
2023-05-02T02:02:53.110Z,60.08
2023-05-02T02:05:21.848Z,58.96
2023-05-02T02:07:49.621Z,58.13
2023-05-02T02:10:19.321Z,58.20
2023-05-02T02:12:53.755Z,58.18
2023-05-02T02:15:28.397Z,58.49
2023-05-02T02:18:00.299Z,58.28
2023-05-02T02:20:31.908Z,58.33
2023-05-02T02:23:03.025Z,58.87
2023-05-02T02:25:30.838Z,57.64
2023-05-02T02:27:59.112Z,57.11
2023-05-02T02:30:29.982Z,56.48
2023-05-02T02:32:58.041Z,55.65
2023-05-02T02:35:35.006Z,55.44
2023-05-02T02:38:12.450Z,55.40
2023-05-02T02:40:46.078Z,55.46
2023-05-02T02:43:21.868Z,54.86
2023-05-02T02:46:18.285Z,55.15
2023-05-02T02:48:55.652Z,54.72
2023-05-02T02:51:31.920Z,55.20
2023-05-02T02:54:19.084Z,55.09
2023-05-02T02:57:02.219Z,55.35
2023-05-02T02:59:32.994Z,54.54
2023-05-02T03:02:08.410Z,53.66
2023-05-02T03:04:39.282Z,54.11
2023-05-02T03:07:07.225Z,53.47
2023-05-02T03:09:44.437Z,53.76
2023-05-02T03:12:16.711Z,53.41
2023-05-02T03:14:45.623Z,53.34
2023-05-02T03:17:14.862Z,52.70
2023-05-02T03:19:43.216Z,52.30
2023-05-02T03:22:11.317Z,51.89
2023-05-02T03:24:39.360Z,51.16
2023-05-02T03:27:07.171Z,50.88
2023-05-02T03:29:41.063Z,51.58
2023-05-02T03:32:10.559Z,51.53
2023-05-02T03:34:41.722Z,51.50
2023-05-02T03:37:09.869Z,50.79
2023-05-02T03:39:37.692Z,51.19
2023-05-02T03:42:06.603Z,50.28
2023-05-02T03:44:34.450Z,50.06
2023-05-02T03:47:03.370Z,49.50
2023-05-02T03:49:36.870Z,48.94
2023-05-02T03:52:06.773Z,48.39
2023-05-02T03:54:36.726Z,48.56
2023-05-02T03:57:06.256Z,49.13
2023-05-02T03:59:35.198Z,47.89
2023-05-02T04:02:11.277Z,47.96
2023-05-02T04:04:43.525Z,46.94
2023-05-02T04:07:18.485Z,46.98
2023-05-02T04:09:49.454Z,46.91
2023-05-02T04:12:17.299Z,46.65
2023-05-02T04:14:48.802Z,46.28
2023-05-02T04:17:17.397Z,45.33
2023-05-02T04:19:51.428Z,45.43
2023-05-02T04:22:21.834Z,45.30
2023-05-02T04:25:03.454Z,45.66
2023-05-02T04:27:32.248Z,45.17
2023-05-02T04:30:00.999Z,44.71
2023-05-02T04:32:29.203Z,44.30
2023-05-02T04:34:58.577Z,43.85
2023-05-02T04:37:28.734Z,43.63
2023-05-02T04:39:56.800Z,43.65
2023-05-02T04:42:27.668Z,43.31
2023-05-02T04:45:06.614Z,43.39
2023-05-02T04:47:34.466Z,43.25
2023-05-02T04:50:02.518Z,43.07
2023-05-02T04:52:32.809Z,43.57
2023-05-02T04:55:00.665Z,43.48
2023-05-02T04:57:29.067Z,43.36
2023-05-02T04:59:59.929Z,43.99
2023-05-02T05:02:28.759Z,44.19
2023-05-02T05:04:58.566Z,44.26
2023-05-02T05:07:26.704Z,44.11
2023-05-02T05:09:57.905Z,43.96
2023-05-02T05:12:28.988Z,44.17
2023-05-02T05:14:57.326Z,43.64
2023-05-02T05:17:27.626Z,44.33
2023-05-02T05:19:55.846Z,44.86
2023-05-02T05:22:23.900Z,44.22
2023-05-02T05:24:54.970Z,44.42
2023-05-02T05:27:29.611Z,43.63
2023-05-02T05:29:57.921Z,43.06
2023-05-02T05:32:26.201Z,43.48
2023-05-02T05:34:54.992Z,43.36
2023-05-02T05:37:26.231Z,43.64
2023-05-02T05:39:54.080Z,43.27
2023-05-02T05:42:21.958Z,44.02
2023-05-02T05:44:54.793Z,43.83
2023-05-02T05:47:22.990Z,44.06
2023-05-02T05:49:55.064Z,44.21
2023-05-02T05:52:26.269Z,44.31
2023-05-02T05:54:56.747Z,43.79
2023-05-02T05:57:26.115Z,43.06
2023-05-02T05:59:56.767Z,41.99
2023-05-02T06:02:24.906Z,42.19
2023-05-02T06:04:52.926Z,41.82
2023-05-02T06:07:23.892Z,42.03
2023-05-02T06:09:51.812Z,42.26
2023-05-02T06:12:19.782Z,42.05
2023-05-02T06:14:48.488Z,42.64
2023-05-02T06:17:18.077Z,42.52
2023-05-02T06:19:46.046Z,42.18
2023-05-02T06:22:14.267Z,42.09
2023-05-02T06:24:42.556Z,41.99
2023-05-02T06:27:10.347Z,41.53
2023-05-02T06:29:38.177Z,41.64
2023-05-02T06:32:06.613Z,41.62
2023-05-02T06:34:36.062Z,40.87
2023-05-02T06:37:03.910Z,40.41
2023-05-02T06:39:31.758Z,40.95
2023-05-02T06:41:59.798Z,40.58
2023-05-02T06:44:29.010Z,40.99
2023-05-02T06:46:56.887Z,41.52
2023-05-02T06:49:25.123Z,40.76
2023-05-02T06:51:54.427Z,40.28
2023-05-02T06:54:22.365Z,39.56
2023-05-02T06:56:50.250Z,39.14
2023-05-02T06:59:18.286Z,39.56
2023-05-02T07:01:46.203Z,39.29
2023-05-02T07:04:14.444Z,39.15
2023-05-02T07:06:42.314Z,38.40
2023-05-02T07:09:11.820Z,38.90
2023-05-02T07:11:39.661Z,39.11
2023-05-02T07:14:07.518Z,38.90
2023-05-02T07:16:35.534Z,38.89
2023-05-02T07:19:04.768Z,38.59
2023-05-02T07:21:32.718Z,39.23
2023-05-02T07:24:00.800Z,39.48
2023-05-02T07:26:30.940Z,39.11
2023-05-02T07:28:58.751Z,39.64
2023-05-02T07:31:26.683Z,39.80
2023-05-02T07:33:54.506Z,40.08
2023-05-02T07:36:22.325Z,40.33
2023-05-02T07:38:50.873Z,39.63
2023-05-02T07:41:19.178Z,39.03
2023-05-02T07:43:49.049Z,38.89
2023-05-02T07:46:17.004Z,39.27
2023-05-02T07:48:44.913Z,39.50
2023-05-02T07:51:12.861Z,40.31
2023-05-02T07:53:40.655Z,40.60
2023-05-02T07:56:09.527Z,40.72
2023-05-02T07:58:37.737Z,40.08
2023-05-02T08:01:07.108Z,40.42
2023-05-02T08:03:35.045Z,40.79
2023-05-02T08:06:04.096Z,40.93
2023-05-02T08:08:32.020Z,40.42
2023-05-02T08:10:59.863Z,39.40
2023-05-02T08:13:28.401Z,39.54
2023-05-02T08:15:58.192Z,39.32
2023-05-02T08:18:28.283Z,39.52
2023-05-02T08:20:56.966Z,39.90
2023-05-02T08:23:24.906Z,38.42
2023-05-02T08:25:52.843Z,38.56
2023-05-02T08:28:20.606Z,37.91
2023-05-02T08:30:49.164Z,37.52
2023-05-02T08:33:17.092Z,37.58
2023-05-02T08:35:46.729Z,37.10
2023-05-02T08:38:14.579Z,37.94
2023-05-02T08:40:43.404Z,38.01
2023-05-02T08:43:12.794Z,38.48
2023-05-02T08:45:42.257Z,38.46
2023-05-02T08:48:11.818Z,37.92
2023-05-02T08:50:41.854Z,38.18
2023-05-02T08:53:13.692Z,37.66
2023-05-02T08:55:43.199Z,37.14
2023-05-02T08:58:13.970Z,38.25
2023-05-02T09:00:44.280Z,38.29
2023-05-02T09:03:23.783Z,38.29
2023-05-02T09:05:55.560Z,37.77
2023-05-02T09:08:25.689Z,38.70
2023-05-02T09:10:53.758Z,38.42
2023-05-02T09:13:36.074Z,39.31
2023-05-02T09:16:06.326Z,39.85
2023-05-02T09:18:36.159Z,41.02
2023-05-02T09:21:08.973Z,42.27
2023-05-02T09:23:41.114Z,42.90
2023-05-02T09:26:22.583Z,43.26
2023-05-02T09:28:52.612Z,42.95
2023-05-02T09:31:43.467Z,43.24
2023-05-02T09:34:11.667Z,41.73
2023-05-02T09:36:43.966Z,41.33
2023-05-02T09:39:15.197Z,42.23
2023-05-02T09:41:43.764Z,41.59
2023-05-02T09:44:12.698Z,41.22
2023-05-02T09:46:46.115Z,41.49
2023-05-02T09:49:14.790Z,40.98
2023-05-02T09:51:44.072Z,39.78
2023-05-02T09:54:14.020Z,40.78
2023-05-02T09:56:56.704Z,40.64
2023-05-02T09:59:25.399Z,40.80
2023-05-02T10:01:58.204Z,40.32
2023-05-02T10:04:27.308Z,40.24
2023-05-02T10:06:56.671Z,40.71
2023-05-02T10:09:27.161Z,39.92
2023-05-02T10:11:56.667Z,39.49
2023-05-02T10:14:27.818Z,38.72
2023-05-02T10:17:02.221Z,39.33
2023-05-02T10:19:32.734Z,38.39
2023-05-02T10:22:01.227Z,39.13
2023-05-02T10:24:33.665Z,39.52
2023-05-02T10:27:02.406Z,39.15
2023-05-02T10:29:32.610Z,39.76
2023-05-02T10:32:02.443Z,41.30
2023-05-02T10:34:33.887Z,40.26
2023-05-02T10:37:02.296Z,40.34
2023-05-02T10:39:33.698Z,41.63
2023-05-02T10:42:04.406Z,42.92
2023-05-02T10:44:35.704Z,44.05
2023-05-02T10:47:20.255Z,44.20
2023-05-02T10:49:53.128Z,43.97
2023-05-02T10:52:29.216Z,44.39
2023-05-02T10:55:20.120Z,44.59
2023-05-02T10:58:23.713Z,44.08
2023-05-02T11:00:51.929Z,43.58
2023-05-02T11:03:58.922Z,43.51
2023-05-02T11:06:28.414Z,43.29
2023-05-02T11:09:32.733Z,43.46
2023-05-02T11:12:04.755Z,44.00
2023-05-02T11:14:50.101Z,40.97
2023-05-02T11:17:21.221Z,41.20
2023-05-02T11:20:28.708Z,41.46
2023-05-02T11:22:59.347Z,42.15
2023-05-02T11:25:38.744Z,41.23
2023-05-02T11:28:29.595Z,41.67
2023-05-02T11:30:58.218Z,42.29
2023-05-02T11:33:26.753Z,42.68
2023-05-02T11:35:56.988Z,42.83
2023-05-02T11:38:26.613Z,41.99
2023-05-02T11:41:00.253Z,41.97
2023-05-02T11:43:31.748Z,41.25
2023-05-02T11:46:02.551Z,39.81
2023-05-02T11:48:31.912Z,40.10
2023-05-02T11:51:05.261Z,38.40
2023-05-02T11:53:34.085Z,37.40
2023-05-02T11:56:04.306Z,37.41
2023-05-02T11:58:34.380Z,37.33
2023-05-02T12:01:14.298Z,36.02
2023-05-02T12:03:42.597Z,35.63
2023-05-02T12:06:12.668Z,35.28
2023-05-02T12:08:41.615Z,36.01
2023-05-02T12:11:10.343Z,36.55
2023-05-02T12:13:46.033Z,36.22
2023-05-02T12:16:14.392Z,36.72
2023-05-02T12:18:42.608Z,35.65
2023-05-02T12:21:13.853Z,35.63
2023-05-02T12:23:42.293Z,35.45
2023-05-02T12:26:21.298Z,35.82
2023-05-02T12:28:51.674Z,35.87
2023-05-02T12:31:20.778Z,36.23
2023-05-02T12:33:50.875Z,36.07
2023-05-02T12:36:19.487Z,35.95
2023-05-02T12:38:52.530Z,35.99
2023-05-02T12:41:29.843Z,36.75
2023-05-02T12:44:00.630Z,37.33
2023-05-02T12:46:29.471Z,38.02
2023-05-02T12:49:05.627Z,40.32
2023-05-02T12:51:34.590Z,41.31
2023-05-02T12:54:02.889Z,40.93
2023-05-02T12:56:32.523Z,41.71
2023-05-02T12:59:05.106Z,42.77
2023-05-02T13:01:35.079Z,43.51
2023-05-02T13:04:03.277Z,42.86
2023-05-02T13:06:31.365Z,42.96
2023-05-02T13:09:00.197Z,43.17
2023-05-02T13:11:28.139Z,43.75
2023-05-02T13:13:56.582Z,43.42
2023-05-02T13:16:26.257Z,42.83
2023-05-02T13:18:54.313Z,43.32
2023-05-02T13:21:22.243Z,42.27
2023-05-02T13:23:51.849Z,42.24
2023-05-02T13:26:19.872Z,43.24
2023-05-02T13:28:47.718Z,43.32
2023-05-02T13:31:15.766Z,42.09
2023-05-02T13:33:45.014Z,41.23
2023-05-02T13:36:12.873Z,40.99
2023-05-02T13:38:40.705Z,41.14
2023-05-02T13:41:09.263Z,40.96
2023-05-02T13:43:37.304Z,40.50
2023-05-02T13:46:05.306Z,41.40
2023-05-02T13:48:33.219Z,41.29
2023-05-02T13:51:02.538Z,40.92
2023-05-02T13:53:30.617Z,40.54
2023-05-02T13:55:58.433Z,37.77
2023-05-02T13:58:26.393Z,38.27
2023-05-02T14:00:54.309Z,38.56
2023-05-02T14:03:22.701Z,38.12
2023-05-02T14:05:51.041Z,38.33
2023-05-02T14:08:20.383Z,38.59
2023-05-02T14:10:48.286Z,39.14
2023-05-02T14:13:16.145Z,39.26
2023-05-02T14:15:44.236Z,37.56
2023-05-02T14:18:12.182Z,39.03
2023-05-02T14:20:40.038Z,39.92
2023-05-02T14:23:07.987Z,40.25
2023-05-02T14:25:37.824Z,41.76
2023-05-02T14:28:06.382Z,42.14
2023-05-02T14:30:34.571Z,43.27
2023-05-02T14:33:03.189Z,42.76
2023-05-02T14:35:31.281Z,42.71
2023-05-02T14:37:59.162Z,42.81
2023-05-02T14:40:27.683Z,42.90
2023-05-02T14:42:57.872Z,42.71
2023-05-02T14:45:26.368Z,42.31
2023-05-02T14:47:54.295Z,42.09
2023-05-02T14:50:22.487Z,41.88
2023-05-02T14:52:50.401Z,42.00
2023-05-02T14:55:18.512Z,41.67
2023-05-02T14:57:46.332Z,41.39
2023-05-02T15:00:17.467Z,41.41
2023-05-02T15:02:45.467Z,41.35
2023-05-02T15:05:13.619Z,40.82
2023-05-02T15:07:41.426Z,41.21
2023-05-02T15:10:10.527Z,41.12
2023-05-02T15:12:38.420Z,41.03
2023-05-02T15:15:09.131Z,41.12
2023-05-02T15:17:38.382Z,41.32
2023-05-02T15:20:07.562Z,40.74
2023-05-02T15:22:35.421Z,41.54
2023-05-02T15:25:05.306Z,40.01
2023-05-02T15:27:33.289Z,40.45
2023-05-02T15:30:03.250Z,39.59
2023-05-02T15:32:31.895Z,40.11
2023-05-02T15:35:01.746Z,40.33
2023-05-02T15:37:30.410Z,40.65
2023-05-02T15:40:00.127Z,40.03
2023-05-02T15:42:28.770Z,39.75
2023-05-02T15:44:57.238Z,39.39
2023-05-02T15:47:26.040Z,39.06
2023-05-02T15:49:56.022Z,39.10
2023-05-02T15:52:25.962Z,39.58
2023-05-02T15:54:56.312Z,40.06
2023-05-02T15:57:26.487Z,40.37
2023-05-02T15:59:54.344Z,40.65
2023-05-02T16:02:22.321Z,41.38
2023-05-02T16:04:50.182Z,41.46
2023-05-02T16:07:19.299Z,41.36
2023-05-02T16:09:49.192Z,40.66
2023-05-02T16:12:17.102Z,40.77
2023-05-02T16:14:45.039Z,40.78
2023-05-02T16:17:13.080Z,40.75
2023-05-02T16:19:41.055Z,40.75
2023-05-02T16:22:08.838Z,40.67
2023-05-02T16:24:36.613Z,40.61
2023-05-02T16:27:05.922Z,40.56
2023-05-02T16:29:33.915Z,40.44
2023-05-02T16:32:01.850Z,39.71
2023-05-02T16:34:32.727Z,39.70
2023-05-02T16:37:02.552Z,39.35
2023-05-02T16:39:31.753Z,38.68
2023-05-02T16:41:59.641Z,39.44
2023-05-02T16:44:30.356Z,39.09
2023-05-02T16:46:58.317Z,39.16
2023-05-02T16:49:26.248Z,40.17
2023-05-02T16:51:55.452Z,40.03
2023-05-02T16:54:23.389Z,40.21
2023-05-02T16:56:51.525Z,40.00
2023-05-02T16:59:19.438Z,40.25
2023-05-02T17:01:49.948Z,41.20
2023-05-02T17:04:17.905Z,40.67
2023-05-02T17:06:45.958Z,40.03
2023-05-02T17:09:14.159Z,40.14
2023-05-02T17:11:41.945Z,39.49
2023-05-02T17:14:10.362Z,39.13
2023-05-02T17:16:38.523Z,38.83
2023-05-02T17:19:07.763Z,39.81
2023-05-02T17:21:35.976Z,39.73
2023-05-02T17:24:03.956Z,40.05
2023-05-02T17:26:32.009Z,39.20
2023-05-02T17:29:00.028Z,38.95
2023-05-02T17:31:28.058Z,39.50
2023-05-02T17:33:56.059Z,39.98
2023-05-02T17:36:25.339Z,39.72
2023-05-02T17:38:53.471Z,39.48
2023-05-02T17:41:21.472Z,39.68
2023-05-02T17:43:49.656Z,40.09
2023-05-02T17:46:17.497Z,39.86
2023-05-02T17:48:45.555Z,40.32
2023-05-02T17:51:13.485Z,40.95
2023-05-02T17:53:43.462Z,40.23
2023-05-02T17:56:12.982Z,40.67
2023-05-02T17:58:41.068Z,40.74
2023-05-02T18:01:10.741Z,40.47
2023-05-02T18:03:39.310Z,40.41
2023-05-02T18:06:07.815Z,41.12
2023-05-02T18:08:36.637Z,40.92
2023-05-02T18:11:05.861Z,41.32
2023-05-02T18:13:36.125Z,41.27
2023-05-02T18:16:06.115Z,41.38
2023-05-02T18:18:36.320Z,41.72
2023-05-02T18:21:04.682Z,41.54
2023-05-02T18:23:32.664Z,41.70
2023-05-02T18:26:00.843Z,41.86
2023-05-02T18:28:30.281Z,42.62
2023-05-02T18:30:58.353Z,42.35
2023-05-02T18:33:26.664Z,42.53
2023-05-02T18:35:54.605Z,41.90
2023-05-02T18:38:22.734Z,41.69
2023-05-02T18:40:50.659Z,41.16
2023-05-02T18:43:18.622Z,41.15
2023-05-02T18:45:48.167Z,41.17
2023-05-02T18:48:16.147Z,40.57
2023-05-02T18:50:44.235Z,40.76
2023-05-02T18:53:12.189Z,40.90
2023-05-02T18:55:40.403Z,40.96
2023-05-02T18:58:08.265Z,41.04
2023-05-02T19:00:37.295Z,42.47
2023-05-02T19:03:06.819Z,41.68
2023-05-02T19:05:35.164Z,41.92
2023-05-02T19:08:04.594Z,41.79
2023-05-02T19:10:32.985Z,41.84
2023-05-02T19:13:00.812Z,42.05
2023-05-02T19:15:29.219Z,41.93
2023-05-02T19:17:58.116Z,41.88
2023-05-02T19:20:29.434Z,41.95
2023-05-02T19:23:17.664Z,41.88
2023-05-02T19:25:46.533Z,41.70
2023-05-02T19:28:15.768Z,42.03
2023-05-02T19:30:44.752Z,41.99
2023-05-02T19:33:12.794Z,41.97
2023-05-02T19:35:42.764Z,42.08
2023-05-02T19:38:10.737Z,41.63
2023-05-02T19:40:38.505Z,41.56
2023-05-02T19:43:06.545Z,41.46
2023-05-02T19:45:34.416Z,41.65
2023-05-02T19:48:02.298Z,41.79
2023-05-02T19:50:30.594Z,41.78
2023-05-02T19:53:01.573Z,41.83
2023-05-02T19:55:30.273Z,42.26
2023-05-02T19:58:00.077Z,41.96
2023-05-02T20:00:28.132Z,41.94
2023-05-02T20:02:56.895Z,42.13
2023-05-02T20:05:24.798Z,42.34
2023-05-02T20:07:52.722Z,42.94
2023-05-02T20:10:22.009Z,43.01
2023-05-02T20:12:49.926Z,42.74
2023-05-02T20:15:18.070Z,42.90
2023-05-02T20:17:47.581Z,43.04
2023-05-02T20:20:15.818Z,42.96
2023-05-02T20:22:44.523Z,43.15
2023-05-02T20:25:14.460Z,43.13
2023-05-02T20:27:44.094Z,42.93
2023-05-02T20:30:12.729Z,43.07
2023-05-02T20:32:41.252Z,43.11
2023-05-02T20:35:10.418Z,42.96
2023-05-02T20:37:38.704Z,43.27
2023-05-02T20:40:10.302Z,43.61
2023-05-02T20:42:41.324Z,43.23
2023-05-02T20:45:13.873Z,43.11
2023-05-02T20:47:41.927Z,43.14
2023-05-02T20:50:10.730Z,43.21
2023-05-02T20:52:39.006Z,43.36
2023-05-02T20:55:08.006Z,43.16
2023-05-02T20:57:36.295Z,43.73
2023-05-02T21:00:05.089Z,43.98
2023-05-02T21:02:34.558Z,43.97
2023-05-02T21:05:02.644Z,44.65
2023-05-02T21:07:30.973Z,44.49
2023-05-02T21:09:59.044Z,45.15
2023-05-02T21:12:26.892Z,44.80
2023-05-02T21:14:54.776Z,44.86
2023-05-02T21:17:22.821Z,46.23
2023-05-02T21:19:54.064Z,46.34
2023-05-02T21:22:22.086Z,45.71
2023-05-02T21:24:50.294Z,45.57
2023-05-02T21:27:18.369Z,45.60
2023-05-02T21:29:46.378Z,45.27
2023-05-02T21:32:14.593Z,45.74
2023-05-02T21:34:42.447Z,45.70
2023-05-02T21:37:11.580Z,46.17
2023-05-02T21:39:39.952Z,46.18
2023-05-02T21:42:07.919Z,46.32
2023-05-02T21:44:36.024Z,46.09
2023-05-02T21:47:04.301Z,46.15
2023-05-02T21:49:32.333Z,46.03
2023-05-02T21:52:00.417Z,45.95
2023-05-02T21:54:29.546Z,45.55
2023-05-02T21:56:57.717Z,45.21
2023-05-02T21:59:25.516Z,44.41
2023-05-02T22:01:53.445Z,44.09
2023-05-02T22:04:25.090Z,43.88
2023-05-02T22:06:54.406Z,43.86
2023-05-02T22:09:22.676Z,44.23
2023-05-02T22:11:54.297Z,44.16
2023-05-02T22:14:27.626Z,44.37
2023-05-02T22:17:04.644Z,44.10
2023-05-02T22:19:33.991Z,43.93
2023-05-02T22:22:02.518Z,44.76
2023-05-02T22:24:30.841Z,45.04
2023-05-02T22:27:00.383Z,44.88
2023-05-02T22:29:28.233Z,45.09
2023-05-02T22:31:56.127Z,44.84
2023-05-02T22:34:24.092Z,44.71
2023-05-02T22:36:52.190Z,44.75
2023-05-02T22:39:20.539Z,45.41
2023-05-02T22:41:48.350Z,45.94
2023-05-02T22:44:17.546Z,45.81
2023-05-02T22:46:45.391Z,45.70
2023-05-02T22:49:13.216Z,46.47
2023-05-02T22:51:43.612Z,46.10
2023-05-02T22:54:11.541Z,46.39
2023-05-02T22:56:39.797Z,46.52
2023-05-02T22:59:07.764Z,46.53
2023-05-02T23:01:36.963Z,46.46
2023-05-02T23:04:04.921Z,46.80
2023-05-02T23:06:32.888Z,47.06
2023-05-02T23:09:00.800Z,47.21
2023-05-02T23:11:29.585Z,47.71
2023-05-02T23:13:57.832Z,47.28
2023-05-02T23:16:25.971Z,47.17
2023-05-02T23:18:55.889Z,47.10
2023-05-02T23:21:23.761Z,47.29
2023-05-02T23:23:51.657Z,47.31
2023-05-02T23:26:19.484Z,47.23
2023-05-02T23:28:47.295Z,47.65
2023-05-02T23:31:15.361Z,47.03
2023-05-02T23:33:43.386Z,47.84
2023-05-02T23:36:13.029Z,47.90
2023-05-02T23:38:41.570Z,47.67
2023-05-02T23:41:10.965Z,48.00
2023-05-02T23:43:39.788Z,47.81
2023-05-02T23:46:07.811Z,47.89
2023-05-02T23:48:35.639Z,48.03
2023-05-02T23:51:03.662Z,48.16
2023-05-02T23:53:33.000Z,48.00
2023-05-02T23:56:00.893Z,48.31
2023-05-02T23:58:29.088Z,48.16
